Time;durP1;ratioP1;P1;durP2;ratioP2;P2;SDS_P1;SDS_P2;PMS_P1;PMS_P2;Temp;Humidity;BMP_temperature;BMP_pressure;BME280_temperature;BME280_humidity;BME280_pressure;Samples;Min_cycle;Max_cycle;Signal;HPM_P1;HPM_P2
2021/11/26 00:01:33;;;;;;;12.43;8.15;;;3.50;92.20;;;;;;5068848;28;20024;-77
2021/11/26 00:04:00;;;;;;;16.08;9.90;;;3.40;92.10;;;;;;5073030;28;20016;-77
2021/11/26 00:06:28;;;;;;;17.15;10.52;;;3.40;92.20;;;;;;5071988;28;20025;-77
2021/11/26 00:08:53;;;;;;;13.75;9.80;;;3.40;92.30;;;;;;5072720;28;20126;-78
2021/11/26 00:11:19;;;;;;;13.10;9.10;;;3.40;92.40;;;;;;5072881;28;20489;-77
2021/11/26 00:13:51;;;;;;;16.42;10.57;;;3.30;92.30;;;;;;5073129;28;20103;-77
2021/11/26 00:16:18;;;;;;;18.35;10.85;;;3.40;92.40;;;;;;5073103;28;20157;-76
2021/11/26 00:18:50;;;;;;;14.40;8.93;;;3.30;92.30;;;;;;5072509;28;20059;-76
2021/11/26 00:21:16;;;;;;;14.82;10.02;;;3.30;92.30;;;;;;5072492;28;20556;-79
2021/11/26 00:23:41;;;;;;;18.00;12.40;;;3.20;92.40;;;;;;5072874;28;20064;-80
2021/11/26 00:26:07;;;;;;;13.98;10.95;;;3.20;92.50;;;;;;5088325;28;20028;-79
2021/11/26 00:28:33;;;;;;;14.98;9.02;;;3.20;92.60;;;;;;5072796;28;20478;-79
2021/11/26 00:30:59;;;;;;;14.45;10.82;;;3.20;92.60;;;;;;5072890;28;20028;-79
2021/11/26 00:33:25;;;;;;;13.77;9.38;;;3.30;92.50;;;;;;5073739;28;20028;-78
2021/11/26 00:35:52;;;;;;;17.15;11.98;;;3.30;92.50;;;;;;5073158;28;20385;-79
2021/11/26 00:38:18;;;;;;;13.97;9.23;;;3.30;92.50;;;;;;5072579;28;20032;-79
2021/11/26 00:40:44;;;;;;;19.73;12.40;;;3.30;92.40;;;;;;5072660;28;20426;-78
2021/11/26 00:43:11;;;;;;;19.70;12.48;;;3.30;92.40;;;;;;5072790;28;20059;-79
2021/11/26 00:45:37;;;;;;;18.35;10.70;;;3.30;92.40;;;;;;5072225;28;20505;-78
2021/11/26 00:48:03;;;;;;;13.80;9.98;;;3.30;92.20;;;;;;5072877;28;20074;-78
2021/11/26 00:50:29;;;;;;;15.75;10.68;;;3.20;92.40;;;;;;5071344;28;20408;-78
2021/11/26 00:52:55;;;;;;;18.98;14.50;;;3.30;92.50;;;;;;5072458;28;20485;-79
2021/11/26 00:55:21;;;;;;;12.35;10.52;;;3.30;92.40;;;;;;5073643;28;20024;-79
2021/11/26 00:57:47;;;;;;;15.88;12.23;;;3.30;92.40;;;;;;5073748;28;20492;-79
2021/11/26 01:00:16;;;;;;;14.75;10.25;;;3.30;92.40;;;;;;5072731;28;20020;-78
2021/11/26 01:02:42;;;;;;;16.67;13.25;;;3.30;92.30;;;;;;5072894;28;20020;-77
2021/11/26 01:05:10;;;;;;;19.08;11.82;;;3.30;92.30;;;;;;5069999;28;20121;-77
2021/11/26 01:07:36;;;;;;;19.35;13.02;;;3.30;92.20;;;;;;5063060;28;20496;-76
2021/11/26 01:10:06;;;;;;;18.75;12.98;;;3.30;92.10;;;;;;5056939;28;20037;-77
2021/11/26 01:12:32;;;;;;;13.27;10.88;;;3.20;92.10;;;;;;5072575;28;20117;-77
2021/11/26 01:14:58;;;;;;;16.85;12.10;;;3.30;92.10;;;;;;5072468;28;20052;-77
2021/11/26 01:17:23;;;;;;;16.38;12.40;;;3.20;92.10;;;;;;5072504;28;20055;-78
2021/11/26 01:19:49;;;;;;;18.08;12.05;;;3.20;92.10;;;;;;5072494;28;20095;-77
2021/11/26 01:22:15;;;;;;;16.13;11.70;;;3.20;92.10;;;;;;5072202;28;20516;-78
2021/11/26 01:24:41;;;;;;;18.77;13.27;;;3.30;92.00;;;;;;5072383;28;20052;-76
2021/11/26 01:27:07;;;;;;;17.30;13.02;;;3.20;92.10;;;;;;5072515;28;20056;-77
2021/11/26 01:29:34;;;;;;;17.48;12.55;;;3.20;92.20;;;;;;5072534;28;20016;-77
2021/11/26 01:32:01;;;;;;;15.57;13.05;;;3.20;92.20;;;;;;5073831;28;20116;-77
2021/11/26 01:34:28;;;;;;;18.10;12.18;;;3.30;92.20;;;;;;5073623;28;20013;-78
2021/11/26 01:36:53;;;;;;;16.13;10.80;;;3.20;92.00;;;;;;5072922;28;20027;-79
2021/11/26 01:39:19;;;;;;;16.13;10.82;;;3.20;92.10;;;;;;5070465;28;20025;-79
2021/11/26 01:41:45;;;;;;;19.90;14.52;;;3.20;92.10;;;;;;5052430;28;20025;-77
2021/11/26 01:44:11;;;;;;;17.30;11.77;;;3.20;92.10;;;;;;5052453;28;20045;-79
2021/11/26 01:46:43;;;;;;;16.70;11.68;;;3.20;92.00;;;;;;5052078;28;20568;-78
2021/11/26 01:49:09;;;;;;;18.02;12.55;;;3.20;92.00;;;;;;5054107;28;20021;-78
2021/11/26 01:51:35;;;;;;;17.58;11.60;;;3.30;92.00;;;;;;5055840;28;20104;-77
2021/11/26 01:54:02;;;;;;;19.70;12.32;;;3.20;91.70;;;;;;5055844;28;20098;-78
2021/11/26 01:56:28;;;;;;;21.05;13.38;;;3.20;91.80;;;;;;5055591;28;20021;-78
2021/11/26 01:58:55;;;;;;;17.17;12.20;;;3.20;91.80;;;;;;5055701;28;20120;-78
2021/11/26 02:01:21;;;;;;;17.50;13.00;;;3.20;91.70;;;;;;5055556;28;20025;-79
2021/11/26 02:03:47;;;;;;;17.08;12.90;;;3.20;91.70;;;;;;5068825;28;20035;-78
2021/11/26 02:06:14;;;;;;;19.23;12.40;;;3.30;91.80;;;;;;5075414;28;20099;-80
2021/11/26 02:08:40;;;;;;;17.05;12.10;;;3.20;91.70;;;;;;5075286;28;20481;-79
2021/11/26 02:11:06;;;;;;;19.20;14.07;;;3.20;91.70;;;;;;5075143;28;20111;-78
2021/11/26 02:13:32;;;;;;;18.42;11.50;;;3.20;91.80;;;;;;5075359;28;20025;-80
2021/11/26 02:16:00;;;;;;;14.63;11.48;;;3.20;91.70;;;;;;5075310;28;20524;-78
2021/11/26 02:18:26;;;;;;;;;;;3.20;91.70;;;;;;5075632;28;20120;-78
2021/11/26 02:20:52;;;;;;;20.08;12.85;;;3.20;91.80;;;;;;5075290;28;20373;-79
2021/11/26 02:23:18;;;;;;;20.42;11.75;;;3.20;91.60;;;;;;5075088;28;20098;-78
2021/11/26 02:25:45;;;;;;;19.92;13.05;;;3.20;91.50;;;;;;5074866;28;20028;-80
2021/11/26 02:28:13;;;;;;;18.50;13.40;;;3.20;91.60;;;;;;5074903;28;20062;-77
2021/11/26 02:30:40;;;;;;;19.48;13.20;;;3.20;91.60;;;;;;5074972;28;20020;-78
2021/11/26 02:33:13;;;;;;;21.23;13.70;;;3.30;91.50;;;;;;5075154;28;20028;-78
2021/11/26 02:35:41;;;;;;;19.92;13.20;;;3.30;91.40;;;;;;5075579;28;20490;-79
2021/11/26 02:38:09;;;;;;;16.17;11.02;;;3.30;91.40;;;;;;5076047;28;20028;-77
2021/11/26 02:40:38;;;;;;;18.77;11.75;;;3.30;91.30;;;;;;5075197;28;20501;-78
2021/11/26 02:43:05;;;;;;;18.85;11.75;;;3.30;91.10;;;;;;5055394;28;20031;-78
2021/11/26 02:45:31;;;;;;;19.77;13.43;;;3.20;90.90;;;;;;5054706;28;20052;-78
2021/11/26 02:47:58;;;;;;;17.55;14.45;;;3.20;90.90;;;;;;5054978;28;20044;-77
2021/11/26 02:50:26;;;;;;;19.98;13.30;;;3.20;91.00;;;;;;5053406;28;20021;-76
2021/11/26 02:52:53;;;;;;;15.80;10.63;;;3.10;91.10;;;;;;5054684;28;20505;-77
2021/11/26 02:55:24;;;;;;;17.33;12.32;;;3.20;91.10;;;;;;5060518;28;20384;-78
2021/11/26 02:57:51;;;;;;;20.90;14.13;;;3.20;91.00;;;;;;5074567;28;20052;-78
2021/11/26 03:00:20;;;;;;;19.57;13.90;;;3.20;91.00;;;;;;5073448;28;20435;-77
2021/11/26 03:02:46;;;;;;;20.27;13.35;;;3.20;90.90;;;;;;5074348;28;20276;-79
2021/11/26 03:05:13;;;;;;;19.75;14.68;;;3.20;90.70;;;;;;5074494;28;20095;-78
2021/11/26 03:07:40;;;;;;;20.67;13.52;;;3.10;90.80;;;;;;5074385;28;20424;-78
2021/11/26 03:10:08;;;;;;;16.50;11.30;;;3.20;90.80;;;;;;5073189;28;20025;-80
2021/11/26 03:12:34;;;;;;;20.38;13.38;;;3.20;90.80;;;;;;5074212;28;20362;-78
2021/11/26 03:15:00;;;;;;;21.60;14.18;;;3.10;90.70;;;;;;5074776;28;20052;-79
2021/11/26 03:17:26;;;;;;;18.85;12.07;;;3.10;90.80;;;;;;5072945;28;20066;-78
2021/11/26 03:19:53;;;;;;;21.33;13.75;;;3.00;90.80;;;;;;5074234;28;20020;-77
2021/11/26 03:22:19;;;;;;;18.50;12.23;;;3.00;90.90;;;;;;5073986;28;20378;-80
2021/11/26 03:24:45;;;;;;;17.73;13.07;;;3.10;90.80;;;;;;5074159;28;20099;-78
2021/11/26 03:27:10;;;;;;;19.88;12.38;;;3.10;90.80;;;;;;5074136;28;20070;-77
2021/11/26 03:29:36;;;;;;;19.27;12.43;;;3.10;90.70;;;;;;5073980;28;20091;-77
2021/11/26 03:32:02;;;;;;;19.10;13.55;;;3.10;90.70;;;;;;5072899;28;20036;-77
2021/11/26 03:34:28;;;;;;;23.23;13.43;;;3.10;90.70;;;;;;5074014;28;20021;-78
2021/11/26 03:36:54;;;;;;;15.40;10.38;;;3.10;90.70;;;;;;5073860;28;20020;-77
2021/11/26 03:39:20;;;;;;;21.25;15.32;;;3.10;90.40;;;;;;5073780;28;20020;-78
2021/11/26 03:41:46;;;;;;;18.52;13.90;;;3.00;90.20;;;;;;5074007;28;20038;-78
2021/11/26 03:44:12;;;;;;;16.42;12.52;;;3.00;90.40;;;;;;5073690;28;20067;-78
2021/11/26 03:46:37;;;;;;;20.80;12.18;;;3.00;90.50;;;;;;5073818;28;20041;-78
2021/11/26 03:49:04;;;;;;;17.17;10.60;;;3.00;90.60;;;;;;5073986;28;20052;-78
2021/11/26 03:51:29;;;;;;;17.25;11.93;;;3.00;90.40;;;;;;5073624;28;20032;-77
2021/11/26 03:53:55;;;;;;;19.48;12.23;;;2.90;90.40;;;;;;5073607;28;20558;-78
2021/11/26 03:56:21;;;;;;;20.73;13.95;;;2.90;90.50;;;;;;5073470;28;20052;-79
2021/11/26 03:58:47;;;;;;;20.73;14.52;;;2.90;90.60;;;;;;5073514;28;20021;-77
2021/11/26 04:01:13;;;;;;;17.05;11.93;;;2.80;90.30;;;;;;5073106;28;20024;-77
2021/11/26 04:03:39;;;;;;;23.42;16.60;;;2.80;90.40;;;;;;5071853;28;20055;-78
2021/11/26 04:06:05;;;;;;;23.42;13.32;;;2.80;90.50;;;;;;5073206;28;20027;-79
2021/11/26 04:08:31;;;;;;;27.45;13.90;;;2.80;90.60;;;;;;5073435;28;20017;-78
2021/11/26 04:10:57;;;;;;;17.27;13.00;;;2.90;90.60;;;;;;5072495;28;20027;-78
2021/11/26 04:13:22;;;;;;;15.80;12.82;;;2.90;90.60;;;;;;5072855;28;20024;-78
2021/11/26 04:15:48;;;;;;;18.02;12.73;;;2.80;90.30;;;;;;5072979;28;20496;-78
2021/11/26 04:18:14;;;;;;;15.77;12.13;;;2.90;90.40;;;;;;5072883;28;20032;-77
2021/11/26 04:20:43;;;;;;;16.05;11.27;;;2.80;90.10;;;;;;5073012;28;20024;-79
2021/11/26 04:23:10;;;;;;;18.52;11.23;;;2.80;89.30;;;;;;5071568;28;20028;-79
2021/11/26 04:25:35;;;;;;;20.92;13.43;;;2.80;89.80;;;;;;5072887;28;20025;-79
2021/11/26 04:28:01;;;;;;;23.20;14.32;;;2.70;90.00;;;;;;5072760;28;20385;-78
2021/11/26 04:30:32;;;;;;;18.67;12.57;;;2.70;90.00;;;;;;5072886;28;20016;-79
2021/11/26 04:32:58;;;;;;;17.73;12.95;;;2.70;90.10;;;;;;5071593;28;20037;-78
2021/11/26 04:35:25;;;;;;;17.75;10.85;;;2.70;90.00;;;;;;5072947;28;20020;-78
2021/11/26 04:37:51;;;;;;;20.20;14.63;;;2.80;90.00;;;;;;5072743;28;20059;-79
2021/11/26 04:40:17;;;;;;;24.23;16.00;;;2.80;90.20;;;;;;5072721;28;20028;-78
2021/11/26 04:42:44;;;;;;;16.10;11.95;;;2.80;90.10;;;;;;5072654;28;20082;-79
2021/11/26 04:45:12;;;;;;;17.85;13.55;;;2.90;90.10;;;;;;5073335;28;20134;-79
2021/11/26 04:47:39;;;;;;;16.42;11.60;;;2.90;89.90;;;;;;5073429;28;20028;-77
2021/11/26 04:50:06;;;;;;;17.07;10.23;;;2.90;89.60;;;;;;5072538;28;20389;-77
2021/11/26 04:52:32;;;;;;;20.33;12.50;;;2.80;89.40;;;;;;5072509;28;20029;-78
2021/11/26 04:54:59;;;;;;;17.98;12.68;;;2.80;89.00;;;;;;5072469;28;20021;-78
2021/11/26 04:57:25;;;;;;;19.58;12.98;;;2.80;89.10;;;;;;5071459;28;20058;-79
2021/11/26 04:59:51;;;;;;;16.20;11.48;;;2.80;89.40;;;;;;5072193;28;20020;-79
2021/11/26 05:02:17;;;;;;;19.17;14.18;;;2.80;89.60;;;;;;5070343;28;20501;-79
2021/11/26 05:04:43;;;;;;;18.50;13.10;;;2.80;89.60;;;;;;5072292;28;20036;-79
2021/11/26 05:07:08;;;;;;;20.52;13.38;;;2.90;89.60;;;;;;5071045;28;20031;-79
2021/11/26 05:09:34;;;;;;;21.30;13.70;;;2.90;89.20;;;;;;5072131;28;20017;-78
2021/11/26 05:12:01;;;;;;;18.17;11.88;;;2.80;89.10;;;;;;5072211;28;20086;-79
2021/11/26 05:14:31;;;;;;;18.35;14.90;;;2.80;89.10;;;;;;5072429;28;20040;-77
2021/11/26 05:16:57;;;;;;;18.60;12.90;;;2.80;89.30;;;;;;5071548;28;20123;-79
2021/11/26 05:19:23;;;;;;;15.82;12.38;;;2.80;89.40;;;;;;5072095;28;20028;-79
2021/11/26 05:21:48;;;;;;;17.13;11.25;;;2.90;89.30;;;;;;5073785;28;20033;-78
2021/11/26 05:24:14;;;;;;;17.95;11.65;;;2.90;89.20;;;;;;5075945;28;20024;-79
2021/11/26 05:26:40;;;;;;;21.45;16.27;;;2.80;88.70;;;;;;5075994;28;20504;-79
2021/11/26 05:29:08;;;;;;;19.88;13.45;;;2.80;89.10;;;;;;5075983;28;20095;-78
2021/11/26 05:31:36;;;;;;;16.88;12.93;;;2.80;88.90;;;;;;5074535;28;20032;-80
2021/11/26 05:34:03;;;;;;;;;;;2.80;88.60;;;;;;5080307;28;20071;-80
2021/11/26 05:36:28;;;;;;;16.30;9.90;;;2.80;88.90;;;;;;5082432;28;19909;-80
2021/11/26 05:38:54;;;;;;;20.13;11.98;;;2.80;88.50;;;;;;5076196;28;20028;-79
2021/11/26 05:41:20;;;;;;;21.08;13.75;;;2.70;88.80;;;;;;5075335;28;20024;-80
2021/11/26 05:43:46;;;;;;;17.20;12.48;;;2.70;88.80;;;;;;5075632;28;20051;-80
2021/11/26 05:46:12;;;;;;;19.63;12.43;;;2.80;88.90;;;;;;5075632;28;20035;-79
2021/11/26 05:48:37;;;;;;;16.77;12.55;;;2.80;88.90;;;;;;5075698;28;20197;-79
2021/11/26 05:51:03;;;;;;;18.98;13.27;;;2.80;89.10;;;;;;5074422;28;20032;-78
2021/11/26 05:53:29;;;;;;;18.95;12.18;;;2.80;89.30;;;;;;5075637;28;20032;-79
2021/11/26 05:55:59;;;;;;;12.85;9.30;;;2.80;88.70;;;;;;5076810;28;20093;-78
2021/11/26 05:58:25;;;;;;;33.50;10.25;;;2.90;89.50;;;;;;5076844;28;20040;-79
2021/11/26 06:00:51;;;;;;;17.23;11.18;;;2.90;89.00;;;;;;5076079;28;20431;-79
2021/11/26 06:03:16;;;;;;;20.50;13.98;;;2.90;88.70;;;;;;5075571;28;20025;-79
2021/11/26 06:05:42;;;;;;;20.92;12.60;;;2.90;89.00;;;;;;5075331;28;20031;-79
2021/11/26 06:08:08;;;;;;;21.85;13.15;;;2.90;89.00;;;;;;5075489;28;20082;-80
2021/11/26 06:10:34;;;;;;;20.98;15.05;;;2.90;89.10;;;;;;5075211;28;20027;-79
2021/11/26 06:13:00;;;;;;;18.90;13.18;;;2.90;89.00;;;;;;5075049;28;20033;-80
2021/11/26 06:15:26;;;;;;;20.17;13.75;;;3.00;88.90;;;;;;5075282;28;20020;-82
2021/11/26 06:17:52;;;;;;;18.52;12.45;;;3.00;88.90;;;;;;5075126;28;20524;-77
2021/11/26 06:20:19;;;;;;;19.50;12.23;;;3.10;88.80;;;;;;5075038;28;20025;-80
2021/11/26 06:22:45;;;;;;;17.23;12.60;;;3.10;88.90;;;;;;5075501;28;20074;-81
2021/11/26 06:25:13;;;;;;;18.55;10.75;;;3.10;88.60;;;;;;5074869;28;20020;-79
2021/11/26 06:27:39;;;;;;;14.18;10.38;;;3.10;88.10;;;;;;5074361;28;20086;-80
2021/11/26 06:30:07;;;;;;;15.02;11.93;;;3.10;88.30;;;;;;5074569;28;20063;-81
2021/11/26 06:32:33;;;;;;;17.38;12.32;;;3.10;88.10;;;;;;5073168;28;20029;-81
2021/11/26 06:34:59;;;;;;;18.05;11.38;;;3.10;88.30;;;;;;5073977;28;20036;-79
2021/11/26 06:37:25;;;;;;;17.77;11.20;;;3.10;88.40;;;;;;5074882;28;20118;-79
2021/11/26 06:39:50;;;;;;;20.35;13.48;;;3.20;88.70;;;;;;5075298;28;20146;-79
2021/11/26 06:42:20;;;;;;;19.63;12.23;;;3.20;88.70;;;;;;5076477;28;20032;-82
2021/11/26 06:44:45;;;;;;;18.58;10.77;;;3.30;88.80;;;;;;5070590;28;20051;-80
2021/11/26 06:47:11;;;;;;;20.23;11.88;;;3.30;88.50;;;;;;5074768;28;20024;-81
2021/11/26 06:49:37;;;;;;;23.65;13.38;;;3.30;88.50;;;;;;5074190;28;20028;-80
2021/11/26 06:52:04;;;;;;;15.93;11.70;;;3.30;88.50;;;;;;5074125;28;20481;-80
2021/11/26 06:54:29;;;;;;;15.15;11.25;;;3.40;88.60;;;;;;5062070;28;20021;-81
2021/11/26 06:56:55;;;;;;;21.42;13.85;;;3.40;88.40;;;;;;5059610;28;20032;-79
2021/11/26 06:59:21;;;;;;;19.75;11.88;;;3.40;88.30;;;;;;5054130;28;20025;-79
2021/11/26 07:01:47;;;;;;;21.88;12.07;;;3.50;88.10;;;;;;5054465;28;20051;-79
2021/11/26 07:04:13;;;;;;;16.65;12.00;;;3.40;87.90;;;;;;5054514;28;20045;-78
2021/11/26 07:06:39;;;;;;;16.80;11.35;;;3.50;88.40;;;;;;5054362;28;20032;-78
2021/11/26 07:09:06;;;;;;;18.90;12.43;;;3.50;87.60;;;;;;5054203;28;20108;-78
2021/11/26 07:11:32;;;;;;;18.70;12.82;;;3.50;87.50;;;;;;5054140;28;20122;-79
2021/11/26 07:13:58;;;;;;;15.13;10.38;;;3.50;87.60;;;;;;5054075;28;20040;-78
2021/11/26 07:16:24;;;;;;;18.83;11.05;;;3.50;87.80;;;;;;5054059;28;20075;-79
2021/11/26 07:18:50;;;;;;;14.93;9.43;;;3.50;87.40;;;;;;5052764;28;20367;-78
2021/11/26 07:21:15;;;;;;;17.65;11.60;;;3.50;87.50;;;;;;5052701;28;20025;-79
2021/11/26 07:23:41;;;;;;;17.55;12.80;;;3.50;87.50;;;;;;5055655;28;20032;-79
2021/11/26 07:26:07;;;;;;;15.70;11.75;;;3.50;87.50;;;;;;5058046;28;20029;-79
2021/11/26 07:28:33;;;;;;;21.90;12.45;;;3.50;87.40;;;;;;5055540;28;20060;-78
2021/11/26 07:30:59;;;;;;;19.48;12.50;;;3.50;87.50;;;;;;5054282;28;20151;-78
2021/11/26 07:33:24;;;;;;;19.58;12.50;;;3.50;87.60;;;;;;5053854;28;20351;-79
2021/11/26 07:35:50;;;;;;;15.80;11.02;;;3.60;87.80;;;;;;5052856;28;20029;-78
2021/11/26 07:38:16;;;;;;;17.58;10.98;;;3.60;87.70;;;;;;5053907;28;20032;-78
2021/11/26 07:40:42;;;;;;;23.02;11.13;;;3.70;87.80;;;;;;5053662;28;20017;-78
2021/11/26 07:43:08;;;;;;;19.17;11.35;;;3.70;87.70;;;;;;5053828;28;20056;-78
2021/11/26 07:45:35;;;;;;;14.38;10.38;;;3.70;87.80;;;;;;5061710;28;20127;-79
2021/11/26 07:48:01;;;;;;;18.52;10.88;;;3.80;87.10;;;;;;5072101;28;20024;-79
2021/11/26 07:50:26;;;;;;;18.02;11.80;;;3.80;87.10;;;;;;5074814;28;20028;-79
2021/11/26 07:52:52;;;;;;;17.15;12.80;;;3.80;86.60;;;;;;5075294;28;20035;-79
2021/11/26 07:55:18;;;;;;;17.17;9.43;;;3.80;86.80;;;;;;5075410;28;20032;-78
2021/11/26 07:57:45;;;;;;;18.20;10.48;;;3.80;86.60;;;;;;5073634;28;20389;-79
2021/11/26 08:00:13;;;;;;;20.80;10.85;;;3.70;86.40;;;;;;5073318;28;20528;-79
2021/11/26 08:02:39;;;;;;;18.45;11.48;;;3.70;86.70;;;;;;5072943;28;20055;-79
2021/11/26 08:05:06;;;;;;;13.57;9.60;;;3.70;86.80;;;;;;5073061;28;20017;-79
2021/11/26 08:07:32;;;;;;;17.10;11.37;;;3.70;87.00;;;;;;5072921;28;20346;-78
2021/11/26 08:09:58;;;;;;;17.63;10.85;;;3.70;87.10;;;;;;5071854;28;20473;-76
2021/11/26 08:12:23;;;;;;;12.43;9.02;;;3.70;87.00;;;;;;5072855;28;20043;-78
2021/11/26 08:14:51;;;;;;;17.13;10.75;;;3.70;86.90;;;;;;5072937;28;20046;-78
2021/11/26 08:17:17;;;;;;;15.27;9.80;;;3.70;87.10;;;;;;5071698;28;20542;-77
2021/11/26 08:19:43;;;;;;;16.42;10.15;;;3.70;87.10;;;;;;5072831;28;20397;-79
2021/11/26 08:22:12;;;;;;;18.88;10.70;;;3.80;86.80;;;;;;5072692;28;20028;-78
2021/11/26 08:24:38;;;;;;;21.58;11.57;;;3.80;87.30;;;;;;5072849;28;20418;-77
2021/11/26 08:27:04;;;;;;;18.08;11.68;;;3.80;87.10;;;;;;5073825;28;20024;-80
2021/11/26 08:29:30;;;;;;;10.98;7.65;;;3.70;87.10;;;;;;5072318;28;20013;-79
2021/11/26 08:31:56;;;;;;;16.98;11.90;;;3.80;87.30;;;;;;5072708;28;20051;-78
2021/11/26 08:34:22;;;;;;;16.65;11.63;;;3.80;87.10;;;;;;5072646;28;20448;-79
2021/11/26 08:36:48;;;;;;;15.65;9.23;;;3.80;87.00;;;;;;5072728;28;20059;-77
2021/11/26 08:39:13;;;;;;;17.70;12.30;;;3.80;86.70;;;;;;5072543;28;20027;-78
2021/11/26 08:41:41;;;;;;;16.98;9.98;;;3.70;87.10;;;;;;5072482;28;20024;-80
2021/11/26 08:44:07;;;;;;;18.25;10.73;;;3.80;87.30;;;;;;5072336;28;20055;-79
2021/11/26 08:46:33;;;;;;;13.25;8.48;;;3.70;87.20;;;;;;5072299;28;20031;-78
2021/11/26 08:48:59;;;;;;;15.57;10.07;;;3.70;87.10;;;;;;5072250;28;20431;-79
2021/11/26 08:51:27;;;;;;;15.63;8.95;;;3.70;87.40;;;;;;5072220;28;20531;-77
2021/11/26 08:53:54;;;;;;;13.57;9.48;;;3.70;87.40;;;;;;5071969;28;20074;-79
2021/11/26 08:56:21;;;;;;;15.50;10.50;;;3.70;87.70;;;;;;5073576;28;20024;-78
2021/11/26 08:58:47;;;;;;;17.73;9.20;;;3.70;87.90;;;;;;5078983;28;20044;-79
2021/11/26 09:01:17;;;;;;;19.70;8.45;;;3.70;87.50;;;;;;5078475;28;20468;-79
2021/11/26 09:03:49;;;;;;;10.90;7.70;;;3.70;87.60;;;;;;5078873;28;20032;-78
2021/11/26 09:06:16;;;;;;;15.77;8.68;;;3.70;87.50;;;;;;5078662;28;20481;-79
2021/11/26 09:08:42;;;;;;;14.48;10.52;;;3.70;87.70;;;;;;5078840;28;20028;-78
2021/11/26 09:11:08;;;;;;;17.20;11.30;;;3.70;88.00;;;;;;5078930;28;20028;-78
2021/11/26 09:13:34;;;;;;;14.68;10.45;;;3.80;88.20;;;;;;5078593;28;20043;-79
2021/11/26 09:16:03;;;;;;;20.52;9.68;;;3.80;87.90;;;;;;5079041;28;20099;-78
2021/11/26 09:18:30;;;;;;;28.17;13.45;;;3.80;88.30;;;;;;5078095;28;20032;-80
2021/11/26 09:20:56;;;;;;;11.85;8.00;;;3.90;88.60;;;;;;5078767;28;20390;-80
2021/11/26 09:23:22;;;;;;;21.17;12.13;;;3.90;87.60;;;;;;5077065;28;20118;-78
2021/11/26 09:25:49;;;;;;;19.35;11.20;;;3.80;87.90;;;;;;5078791;28;20101;-78
2021/11/26 09:28:16;;;;;;;16.95;11.75;;;3.90;87.90;;;;;;5078851;28;20055;-78
2021/11/26 09:30:42;;;;;;;19.05;11.93;;;3.90;88.10;;;;;;5078454;28;20042;-79
2021/11/26 09:33:08;;;;;;;17.13;10.15;;;3.90;88.30;;;;;;5077196;28;20043;-79
2021/11/26 09:35:35;;;;;;;16.42;12.40;;;3.90;88.00;;;;;;5078436;28;20016;-80
2021/11/26 09:38:01;;;;;;;17.97;10.47;;;4.00;88.30;;;;;;5077112;28;20073;-78
2021/11/26 09:40:28;;;;;;;17.50;12.20;;;3.90;87.70;;;;;;5078411;28;20024;-79
2021/11/26 09:42:54;;;;;;;17.70;10.70;;;3.90;88.40;;;;;;5080770;28;20020;-79
2021/11/26 09:45:22;;;;;;;15.45;11.95;;;4.00;88.50;;;;;;5081752;28;20047;-79
2021/11/26 09:47:50;;;;;;;14.95;8.50;;;4.00;88.70;;;;;;5078630;28;20107;-82
2021/11/26 09:50:16;;;;;;;18.75;11.90;;;4.00;88.30;;;;;;5077716;28;20158;-78
2021/11/26 09:52:43;;;;;;;17.08;10.23;;;4.00;88.90;;;;;;5078174;28;20067;-78
2021/11/26 09:55:11;;;;;;;20.40;11.65;;;3.90;89.20;;;;;;5078291;28;20027;-80
2021/11/26 09:57:39;;;;;;;10.02;7.40;;;4.00;89.50;;;;;;5078448;28;20021;-79
2021/11/26 10:00:08;;;;;;;15.20;10.02;;;4.00;89.10;;;;;;5077340;28;20029;-79
2021/11/26 10:02:34;;;;;;;16.98;11.68;;;3.90;89.40;;;;;;5078483;28;20020;-78
2021/11/26 10:05:06;;;;;;;16.27;10.90;;;3.90;89.50;;;;;;5078264;28;20012;-79
2021/11/26 10:07:44;;;;;;;19.30;10.77;;;3.90;89.60;;;;;;5077764;28;20021;-80
2021/11/26 10:10:11;;;;;;;;;;;3.90;89.70;;;;;;5075558;28;20052;-79
2021/11/26 10:12:37;;;;;;;;;;;3.90;89.80;;;;;;5075587;28;20438;-79
2021/11/26 10:15:05;;;;;;;17.70;10.10;;;3.90;90.00;;;;;;5075403;28;19970;-82
2021/11/26 10:17:32;;;;;;;16.98;11.02;;;3.90;90.10;;;;;;5073906;28;20029;-79
2021/11/26 10:20:01;;;;;;;19.60;11.30;;;3.80;90.20;;;;;;5075080;28;20358;-80
2021/11/26 10:22:37;;;;;;;18.58;11.43;;;3.80;90.20;;;;;;5073795;28;20448;-80
2021/11/26 10:25:14;;;;;;;17.27;10.77;;;3.90;90.30;;;;;;5074746;28;20099;-79
2021/11/26 10:27:47;;;;;;;;;;;3.80;90.70;;;;;;5075426;28;20052;-76
2021/11/26 10:30:20;;;;;;;15.63;11.25;;;3.80;90.40;;;;;;5074824;28;20004;-79
2021/11/26 10:33:10;;;;;;;20.95;11.77;;;3.80;90.50;;;;;;5074607;28;20496;-79
2021/11/26 10:35:55;;;;;;;17.60;10.57;;;3.80;90.60;;;;;;5074578;28;20120;-78
2021/11/26 10:38:26;;;;;;;16.75;10.32;;;3.80;90.70;;;;;;5074873;28;20031;-77
2021/11/26 10:40:58;;;;;;;20.63;10.27;;;3.80;90.70;;;;;;5074667;28;20035;-79
2021/11/26 10:43:45;;;;;;;19.23;12.65;;;3.80;90.70;;;;;;5074594;28;20072;-79
2021/11/26 11:00:07;;;;;;;21.02;13.70;;;3.90;90.70;;;;;;5074231;28;20040;-80
2021/11/26 11:02:39;;;;;;;20.65;12.95;;;3.90;90.70;;;;;;5074367;28;20032;-79
2021/11/26 11:05:40;;;;;;;20.50;12.93;;;3.90;90.70;;;;;;5075078;28;20527;-80
2021/11/26 11:08:23;;;;;;;16.85;11.27;;;4.00;90.70;;;;;;5075385;28;20021;-80
2021/11/26 11:10:49;;;;;;;14.65;10.57;;;4.00;90.60;;;;;;5074158;28;20029;-79
2021/11/26 11:13:19;;;;;;;19.08;12.05;;;3.90;90.70;;;;;;5074114;28;20091;-78
2021/11/26 11:15:48;;;;;;;17.40;11.40;;;3.90;90.80;;;;;;5073974;28;20073;-77
2021/11/26 11:18:15;;;;;;;16.88;10.25;;;3.90;90.70;;;;;;5073804;28;20028;-79
2021/11/26 11:20:43;;;;;;;22.40;13.37;;;3.90;90.70;;;;;;5073865;28;20041;-79
2021/11/26 11:23:15;;;;;;;;;;;3.90;90.80;;;;;;5072971;28;20052;-80
2021/11/26 11:25:42;;;;;;;16.30;10.75;;;3.90;90.70;;;;;;5073922;28;20354;-80
2021/11/26 11:28:10;;;;;;;20.50;13.90;;;3.90;90.70;;;;;;5073728;28;20060;-80
2021/11/26 11:30:38;;;;;;;18.08;11.65;;;3.90;90.60;;;;;;5073320;28;20104;-80
2021/11/26 11:33:03;;;;;;;17.25;12.20;;;3.90;90.70;;;;;;5076160;28;20113;-81
2021/11/26 11:35:32;;;;;;;19.20;11.60;;;3.90;90.70;;;;;;5073539;28;20106;-79
2021/11/26 11:38:00;;;;;;;17.00;13.27;;;3.90;90.70;;;;;;5073469;28;20025;-80
2021/11/26 11:40:38;;;;;;;17.75;11.85;;;3.90;90.70;;;;;;5072382;28;20090;-80
2021/11/26 11:43:16;;;;;;;21.33;14.00;;;3.90;90.70;;;;;;5073428;28;20055;-79
2021/11/26 11:46:00;;;;;;;20.33;13.85;;;3.90;90.80;;;;;;5073332;28;20064;-79
2021/11/26 11:48:32;;;;;;;19.17;14.13;;;4.00;90.90;;;;;;5073260;28;20031;-80
2021/11/26 11:50:59;;;;;;;20.75;15.20;;;4.00;90.90;;;;;;5073090;28;20013;-81
2021/11/26 11:53:32;;;;;;;19.30;15.05;;;3.90;90.90;;;;;;5072168;28;20574;-79
2021/11/26 11:56:07;;;;;;;20.08;14.30;;;3.90;90.90;;;;;;5073242;28;20035;-80
2021/11/26 11:58:51;;;;;;;24.85;13.80;;;3.90;91.00;;;;;;5073026;28;20036;-81
2021/11/26 12:01:21;;;;;;;19.02;12.48;;;3.90;90.90;;;;;;5073076;28;20027;-81
2021/11/26 12:03:47;;;;;;;19.27;13.85;;;3.90;91.20;;;;;;5073345;28;20103;-80
2021/11/26 12:06:13;;;;;;;18.05;11.13;;;4.00;91.00;;;;;;5073581;28;20052;-82
2021/11/26 12:08:57;;;;;;;23.92;13.77;;;3.90;90.90;;;;;;5071724;28;20435;-79
2021/11/26 12:11:25;;;;;;;20.23;13.75;;;3.90;90.90;;;;;;5071432;28;20044;-80
2021/11/26 12:14:01;;;;;;;15.95;13.48;;;3.90;90.90;;;;;;5072692;28;20424;-79
2021/11/26 12:16:29;;;;;;;17.88;13.25;;;3.90;90.90;;;;;;5071487;28;20031;-79
2021/11/26 12:18:55;;;;;;;29.05;14.52;;;3.90;90.80;;;;;;5071340;28;20400;-79
2021/11/26 12:21:28;;;;;;;16.60;12.35;;;4.00;90.90;;;;;;5072803;28;20020;-80
2021/11/26 12:24:10;;;;;;;23.67;14.50;;;4.00;90.90;;;;;;5072581;28;20017;-81
2021/11/26 12:27:01;;;;;;;20.73;10.73;;;3.90;91.00;;;;;;5073064;28;20045;-78
2021/11/26 12:29:46;;;;;;;22.33;12.50;;;3.90;90.90;;;;;;5071637;28;20024;-80
2021/11/26 12:32:19;;;;;;;19.35;13.65;;;3.90;91.00;;;;;;5070785;28;20032;-79
2021/11/26 12:34:49;;;;;;;23.15;14.38;;;3.90;91.10;;;;;;5072781;28;20028;-81
2021/11/26 12:37:27;;;;;;;21.17;15.05;;;3.90;91.10;;;;;;5073932;28;20439;-80
2021/11/26 12:39:56;;;;;;;26.45;15.10;;;4.00;91.20;;;;;;5072452;28;20023;-79
2021/11/26 12:42:23;;;;;;;18.67;13.27;;;4.00;91.10;;;;;;5072738;28;20094;-78
2021/11/26 12:45:13;;;;;;;20.63;13.95;;;4.00;91.10;;;;;;5073757;28;20032;-79
2021/11/26 12:47:56;;;;;;;22.90;13.00;;;4.00;91.00;;;;;;5072563;28;20033;-79
2021/11/26 12:53:16;;;;;;;23.55;14.82;;;3.90;91.20;;;;;;5052695;28;20052;-78
2021/11/26 12:56:05;;;;;;;20.75;13.65;;;3.90;91.30;;;;;;5052609;28;20032;-77
2021/11/26 12:58:33;;;;;;;21.23;14.98;;;3.90;91.30;;;;;;5050812;28;20021;-79
2021/11/26 13:01:05;;;;;;;18.35;12.13;;;3.90;91.30;;;;;;5052302;28;20039;-79